createdAt,value
2022-12-26T00:05:11.453Z,10.00
2022-12-26T00:07:38.767Z,12.82
2022-12-26T00:10:06.858Z,9.82
2022-12-26T00:15:20.085Z,12.13
2022-12-26T00:23:17.352Z,9.60
2022-12-26T00:25:44.753Z,11.85
2022-12-26T00:28:12.321Z,9.40
2022-12-26T00:30:39.867Z,10.18
2022-12-26T00:33:07.406Z,11.00
2022-12-26T00:35:34.761Z,11.30
2022-12-26T00:38:02.328Z,11.70
2022-12-26T00:40:29.714Z,7.70
2022-12-26T00:42:57.175Z,10.38
2022-12-26T00:50:51.772Z,12.32
2022-12-26T00:53:19.718Z,11.57
2022-12-26T00:55:47.270Z,8.88
2022-12-26T00:58:14.759Z,10.05
2022-12-26T01:00:42.270Z,9.20
2022-12-26T01:03:11.193Z,8.25
2022-12-26T01:05:50.438Z,7.55
2022-12-26T01:08:21.794Z,9.05
2022-12-26T01:10:52.457Z,9.43
2022-12-26T01:13:21.594Z,9.02
2022-12-26T01:15:50.932Z,8.80
2022-12-26T01:21:10.732Z,11.15
2022-12-26T01:23:38.212Z,10.20
2022-12-26T01:26:14.944Z,9.70
2022-12-26T01:28:43.943Z,10.35
2022-12-26T01:31:11.446Z,11.35
2022-12-26T01:33:38.941Z,10.40
2022-12-26T01:36:06.634Z,11.02
2022-12-26T01:38:34.175Z,10.68
2022-12-26T01:41:17.289Z,10.32
2022-12-26T01:46:52.085Z,10.52
2022-12-26T01:58:19.100Z,13.68
2022-12-26T02:00:47.023Z,13.45
2022-12-26T02:06:18.454Z,8.43
2022-12-26T02:08:47.003Z,7.80
2022-12-26T02:13:45.972Z,9.63
2022-12-26T02:16:16.844Z,7.18
2022-12-26T02:24:39.953Z,9.75
2022-12-26T02:27:35.932Z,7.10
2022-12-26T02:30:25.030Z,7.80
2022-12-26T02:33:09.298Z,8.70
2022-12-26T02:35:55.128Z,8.13
2022-12-26T02:38:48.005Z,12.43
2022-12-26T02:41:27.251Z,8.27
2022-12-26T02:44:52.081Z,6.60
2022-12-26T02:47:48.801Z,7.90
2022-12-26T02:51:05.710Z,6.65
2022-12-26T02:54:12.359Z,8.02
2022-12-26T02:57:08.767Z,16.70
2022-12-26T03:00:07.105Z,7.03
2022-12-26T03:02:58.695Z,8.95
2022-12-26T03:09:45.630Z,8.07
2022-12-26T03:16:02.629Z,7.22
2022-12-26T03:21:20.987Z,6.10
2022-12-26T03:23:51.884Z,9.00
2022-12-26T03:26:41.102Z,8.45
2022-12-26T03:29:33.088Z,7.88
2022-12-26T03:32:02.835Z,10.13
2022-12-26T03:34:30.322Z,10.70
2022-12-26T03:40:22.573Z,7.93
2022-12-26T03:43:35.323Z,11.85
2022-12-26T03:46:30.262Z,16.25
2022-12-26T03:49:39.138Z,13.45
2022-12-26T03:52:34.040Z,15.95
2022-12-26T03:55:27.503Z,16.33
2022-12-26T03:58:31.738Z,20.25
2022-12-26T04:07:56.221Z,18.40
2022-12-26T04:11:02.976Z,17.75
2022-12-26T04:14:04.094Z,15.70
2022-12-26T04:17:11.899Z,12.60
2022-12-26T04:19:58.570Z,9.80
2022-12-26T04:23:26.572Z,13.02
2022-12-26T04:26:30.627Z,6.95
2022-12-26T04:29:16.912Z,11.18
2022-12-26T04:32:36.476Z,9.52
2022-12-26T04:35:48.921Z,9.85
2022-12-26T04:38:41.886Z,8.57
2022-12-26T04:41:30.638Z,9.07
2022-12-26T04:44:27.254Z,9.63
2022-12-26T04:46:56.731Z,10.85
2022-12-26T04:49:44.503Z,13.05
2022-12-26T04:52:55.125Z,13.38
2022-12-26T04:55:26.134Z,11.02
2022-12-26T05:00:55.930Z,14.55
2022-12-26T05:03:47.469Z,12.80
2022-12-26T05:06:41.678Z,18.50
2022-12-26T05:15:26.845Z,17.65
2022-12-26T05:18:15.335Z,15.45
2022-12-26T05:21:12.635Z,26.30
2022-12-26T05:24:25.641Z,27.27
2022-12-26T05:27:14.480Z,24.75
2022-12-26T05:29:42.905Z,33.80
2022-12-26T05:32:12.503Z,26.65
2022-12-26T05:34:40.860Z,23.42
2022-12-26T05:37:09.288Z,32.95
2022-12-26T05:42:05.795Z,27.48
2022-12-26T05:44:34.214Z,26.92
2022-12-26T05:47:02.315Z,20.75
2022-12-26T05:52:27.086Z,19.83
2022-12-26T05:54:54.817Z,25.48
2022-12-26T05:57:24.583Z,26.55
2022-12-26T05:59:52.631Z,36.90
2022-12-26T06:02:23.925Z,37.63
2022-12-26T06:04:51.511Z,24.42
2022-12-26T06:07:20.248Z,43.38
2022-12-26T06:09:52.130Z,34.97
2022-12-26T06:12:27.606Z,36.58
2022-12-26T06:14:56.983Z,27.70
2022-12-26T06:17:27.958Z,29.70
2022-12-26T06:20:00.121Z,28.02
2022-12-26T06:22:32.035Z,27.15
2022-12-26T06:25:00.069Z,21.23
2022-12-26T06:27:29.445Z,22.17
2022-12-26T06:29:57.881Z,22.35
2022-12-26T06:32:28.155Z,18.75
2022-12-26T06:34:56.373Z,22.08
2022-12-26T06:37:24.559Z,22.67
2022-12-26T06:39:52.263Z,21.52
2022-12-26T06:42:19.882Z,21.02
2022-12-26T06:44:48.015Z,25.63
2022-12-26T06:47:17.089Z,26.80
2022-12-26T06:49:45.391Z,26.30
2022-12-26T06:52:19.876Z,25.40
2022-12-26T06:58:28.768Z,24.98
2022-12-26T07:02:24.632Z,18.42
2022-12-26T07:05:50.209Z,26.00
2022-12-26T07:09:07.632Z,21.13
2022-12-26T07:12:28.538Z,22.50
2022-12-26T07:15:01.704Z,21.50
2022-12-26T07:17:35.740Z,25.42
2022-12-26T07:20:22.981Z,24.15
2022-12-26T07:22:59.975Z,24.13
2022-12-26T07:25:32.250Z,25.02
2022-12-26T07:28:02.411Z,23.05
2022-12-26T07:30:33.077Z,25.83
2022-12-26T07:33:02.150Z,19.33
2022-12-26T07:35:35.462Z,23.70
2022-12-26T07:38:13.851Z,28.42
2022-12-26T07:40:48.879Z,20.58
2022-12-26T07:43:18.825Z,18.10
2022-12-26T07:45:46.818Z,21.90
2022-12-26T07:48:15.216Z,21.25
2022-12-26T07:50:55.686Z,15.88
2022-12-26T07:53:32.965Z,14.48
2022-12-26T07:59:17.232Z,14.75
2022-12-26T08:07:14.025Z,15.20
2022-12-26T08:09:51.012Z,15.30
2022-12-26T08:12:33.684Z,11.57
2022-12-26T08:15:05.539Z,11.07
2022-12-26T08:17:34.306Z,15.65
2022-12-26T08:20:02.111Z,14.50
2022-12-26T08:22:31.698Z,14.13
2022-12-26T08:25:01.840Z,11.30
2022-12-26T08:30:13.922Z,12.93
2022-12-26T08:32:46.370Z,11.52
2022-12-26T08:35:17.372Z,12.35
2022-12-26T08:37:45.430Z,9.10
2022-12-26T08:45:46.158Z,10.05
2022-12-26T08:48:17.778Z,9.98
2022-12-26T08:51:09.392Z,10.20
2022-12-26T08:53:38.493Z,9.85
2022-12-26T08:56:20.166Z,8.82
2022-12-26T08:58:49.649Z,12.48
2022-12-26T09:01:26.971Z,12.60
2022-12-26T09:04:02.425Z,11.85
2022-12-26T09:06:33.278Z,9.30
2022-12-26T09:09:01.481Z,13.85
2022-12-26T09:11:30.886Z,10.90
2022-12-26T09:14:03.351Z,17.00
2022-12-26T09:16:45.954Z,11.27
2022-12-26T09:19:18.926Z,13.32
2022-12-26T09:24:20.779Z,14.35
2022-12-26T09:29:52.840Z,13.70
2022-12-26T09:32:23.687Z,11.23
2022-12-26T09:34:52.279Z,14.05
2022-12-26T09:37:20.092Z,16.00
2022-12-26T09:39:48.339Z,14.30
2022-12-26T09:43:04.410Z,17.48
2022-12-26T09:46:01.740Z,13.18
2022-12-26T09:48:41.532Z,11.07
2022-12-26T09:51:13.672Z,11.95
2022-12-26T09:53:44.638Z,13.25
2022-12-26T09:56:37.006Z,9.77
2022-12-26T09:59:19.760Z,12.38
2022-12-26T10:01:53.644Z,13.73
2022-12-26T10:04:30.592Z,15.77
2022-12-26T10:07:40.968Z,15.38
2022-12-26T10:10:28.217Z,17.63
2022-12-26T10:13:27.528Z,25.15
2022-12-26T10:16:17.925Z,15.18
2022-12-26T10:19:01.540Z,21.60
2022-12-26T10:21:42.039Z,16.98
2022-12-26T10:24:34.195Z,21.88
2022-12-26T10:27:06.974Z,25.25
2022-12-26T10:29:41.314Z,17.92
2022-12-26T10:32:18.090Z,19.17
2022-12-26T10:34:50.282Z,21.33
2022-12-26T10:37:32.239Z,16.77
2022-12-26T10:40:19.247Z,17.33
2022-12-26T10:42:59.694Z,14.00
2022-12-26T10:45:44.176Z,14.25
2022-12-26T10:48:15.796Z,9.65
2022-12-26T10:53:31.161Z,14.05
2022-12-26T10:56:02.367Z,9.43
2022-12-26T10:58:37.115Z,9.43
2022-12-26T11:01:29.590Z,10.15
2022-12-26T11:04:16.743Z,11.73
2022-12-26T11:06:53.391Z,9.73
2022-12-26T11:09:44.418Z,7.93
2022-12-26T11:12:26.380Z,9.73
2022-12-26T11:15:17.557Z,14.68
2022-12-26T11:17:47.702Z,9.60
2022-12-26T11:20:15.560Z,8.18
2022-12-26T11:22:45.285Z,9.02
2022-12-26T11:25:22.130Z,15.02
2022-12-26T11:27:56.226Z,10.70
2022-12-26T11:30:37.461Z,14.10
2022-12-26T11:33:14.752Z,10.13
2022-12-26T11:35:53.113Z,12.93
2022-12-26T11:38:44.830Z,15.95
2022-12-26T11:41:37.076Z,14.23
2022-12-26T11:44:13.180Z,16.83
2022-12-26T11:46:50.531Z,15.68
2022-12-26T11:49:33.999Z,14.50
2022-12-26T11:52:27.285Z,15.85
2022-12-26T11:54:54.991Z,13.32
2022-12-26T12:00:22.674Z,17.42
2022-12-26T12:02:51.155Z,22.02
2022-12-26T12:05:21.512Z,13.82
2022-12-26T12:08:01.677Z,12.77
2022-12-26T12:10:53.741Z,9.73
2022-12-26T12:13:42.613Z,8.82
2022-12-26T12:19:33.339Z,10.23
2022-12-26T12:22:46.012Z,17.75
2022-12-26T12:28:13.698Z,15.55
2022-12-26T12:30:52.379Z,8.88
2022-12-26T12:33:28.748Z,15.68
2022-12-26T12:36:13.992Z,16.60
2022-12-26T12:39:06.488Z,19.92
2022-12-26T12:41:34.481Z,17.35
2022-12-26T12:44:19.935Z,11.98
2022-12-26T12:47:14.600Z,18.60
2022-12-26T12:52:49.625Z,9.02
2022-12-26T12:55:32.799Z,13.45
2022-12-26T12:58:04.121Z,9.48
2022-12-26T13:00:43.225Z,12.10
2022-12-26T13:03:47.841Z,10.10
2022-12-26T13:06:30.137Z,10.82
2022-12-26T13:09:07.618Z,13.23
2022-12-26T13:11:59.950Z,11.02
2022-12-26T13:14:36.469Z,10.23
2022-12-26T13:17:15.630Z,8.30
2022-12-26T13:23:10.724Z,11.50
2022-12-26T13:25:45.256Z,18.85
2022-12-26T13:28:19.529Z,19.80
2022-12-26T13:30:54.715Z,20.30
2022-12-26T13:33:23.153Z,24.25
2022-12-26T13:35:57.253Z,22.17
2022-12-26T13:38:57.157Z,16.95
2022-12-26T13:41:45.230Z,25.65
2022-12-26T13:44:18.575Z,17.42
2022-12-26T13:46:49.018Z,22.30
2022-12-26T13:49:40.014Z,20.65
2022-12-26T13:52:15.111Z,21.48
2022-12-26T13:54:48.809Z,20.15
2022-12-26T13:57:34.890Z,27.27
2022-12-26T14:00:08.708Z,23.83
2022-12-26T14:03:18.477Z,24.30
2022-12-26T14:05:52.983Z,23.67
2022-12-26T14:08:33.406Z,23.23
2022-12-26T14:11:25.100Z,20.38
2022-12-26T14:13:57.187Z,17.98
2022-12-26T14:16:30.832Z,12.82
2022-12-26T14:19:12.815Z,9.85
2022-12-26T14:22:02.174Z,15.45
2022-12-26T14:24:43.689Z,12.43
2022-12-26T14:27:34.497Z,14.25
2022-12-26T14:30:08.368Z,12.57
2022-12-26T14:36:17.401Z,15.73
2022-12-26T14:38:50.936Z,11.52
2022-12-26T14:41:38.860Z,13.75
2022-12-26T14:46:39.588Z,16.42
2022-12-26T14:49:38.617Z,12.98
2022-12-26T14:52:40.989Z,15.35
2022-12-26T14:55:42.603Z,16.17
2022-12-26T14:58:31.828Z,23.77
2022-12-26T15:01:15.945Z,24.70
2022-12-26T15:04:05.409Z,25.17
2022-12-26T15:06:45.535Z,30.85
2022-12-26T15:09:57.040Z,39.53
2022-12-26T15:13:01.918Z,35.58
2022-12-26T15:15:48.062Z,21.83
2022-12-26T15:18:58.345Z,13.50
2022-12-26T15:21:44.520Z,13.40
2022-12-26T15:25:17.987Z,10.98
2022-12-26T15:28:03.630Z,10.73
2022-12-26T15:31:02.591Z,10.30
2022-12-26T15:33:40.589Z,13.35
2022-12-26T15:36:30.907Z,11.70
2022-12-26T15:39:20.387Z,11.93
2022-12-26T15:42:04.971Z,15.27
2022-12-26T15:44:48.142Z,9.75
2022-12-26T15:47:43.111Z,10.85
2022-12-26T15:50:27.015Z,11.35
2022-12-26T15:53:21.374Z,12.73
2022-12-26T15:56:12.396Z,9.25
2022-12-26T15:59:16.867Z,10.98
2022-12-26T16:01:47.081Z,12.60
2022-12-26T16:04:24.732Z,14.95
2022-12-26T16:07:10.039Z,11.48
2022-12-26T16:09:44.046Z,12.63
2022-12-26T16:12:23.937Z,13.88
2022-12-26T16:15:02.752Z,10.77
2022-12-26T16:17:32.218Z,8.93
2022-12-26T16:19:59.689Z,13.63
2022-12-26T16:22:47.361Z,12.45
2022-12-26T16:25:26.593Z,15.23
2022-12-26T16:30:38.725Z,17.45
2022-12-26T16:33:07.201Z,16.30
2022-12-26T16:35:38.343Z,22.13
2022-12-26T16:38:08.291Z,19.83
2022-12-26T16:40:44.117Z,19.85
2022-12-26T16:43:25.787Z,19.15
2022-12-26T16:45:56.583Z,15.05
2022-12-26T16:48:26.517Z,18.05
2022-12-26T16:50:57.426Z,13.75
2022-12-26T16:53:44.806Z,12.52
2022-12-26T16:56:47.520Z,17.40
2022-12-26T16:59:19.139Z,10.95
2022-12-26T17:01:53.289Z,13.45
2022-12-26T17:04:26.774Z,10.82
2022-12-26T17:06:56.579Z,13.20
2022-12-26T17:09:26.951Z,13.10
2022-12-26T17:11:59.257Z,8.75
2022-12-26T17:14:32.354Z,14.70
2022-12-26T17:17:22.719Z,12.73
2022-12-26T17:19:54.371Z,12.07
2022-12-26T17:22:29.620Z,10.18
2022-12-26T17:25:15.925Z,13.95
2022-12-26T17:27:45.328Z,11.20
2022-12-26T17:33:19.812Z,14.48
2022-12-26T17:38:52.664Z,13.07
2022-12-26T17:41:20.263Z,13.18
2022-12-26T17:43:48.056Z,10.48
2022-12-26T17:46:18.443Z,15.00
2022-12-26T17:48:46.403Z,22.45
2022-12-26T17:51:19.063Z,14.63
2022-12-26T17:53:51.687Z,12.48
2022-12-26T17:56:22.910Z,12.20
2022-12-26T17:58:50.910Z,17.95
2022-12-26T18:01:21.643Z,10.73
2022-12-26T18:06:33.432Z,13.65
2022-12-26T18:09:00.881Z,13.77
2022-12-26T18:11:29.124Z,9.75
2022-12-26T18:13:57.131Z,16.13
2022-12-26T18:16:28.395Z,9.82
2022-12-26T18:18:55.944Z,13.15
2022-12-26T18:21:23.529Z,20.40
2022-12-26T18:23:50.881Z,10.00
2022-12-26T18:29:11.282Z,12.43
2022-12-26T18:31:39.727Z,11.27
2022-12-26T18:34:07.455Z,10.90
2022-12-26T18:36:38.772Z,9.95
2022-12-26T18:39:06.386Z,12.00
2022-12-26T18:41:33.842Z,9.00
2022-12-26T18:44:01.401Z,12.40
2022-12-26T18:46:30.126Z,8.25
2022-12-26T18:51:28.089Z,9.00
2022-12-26T18:53:55.735Z,10.85
2022-12-26T18:56:23.633Z,9.68
2022-12-26T18:58:57.476Z,16.10
2022-12-26T19:01:26.433Z,12.13
2022-12-26T19:03:55.436Z,14.07
2022-12-26T19:06:26.004Z,12.80
2022-12-26T19:08:53.582Z,14.02
2022-12-26T19:11:21.589Z,10.40
2022-12-26T19:13:49.300Z,13.32
2022-12-26T19:16:17.066Z,9.88
2022-12-26T19:18:44.850Z,10.55
2022-12-26T19:21:16.469Z,12.52
2022-12-26T19:23:47.786Z,10.73
2022-12-26T19:26:17.709Z,9.23
2022-12-26T19:31:38.735Z,10.48
2022-12-26T19:34:06.143Z,11.82
2022-12-26T19:36:33.858Z,14.43
2022-12-26T19:39:01.269Z,12.15
2022-12-26T19:41:29.141Z,14.25
2022-12-26T19:43:57.709Z,14.95
2022-12-26T19:48:54.180Z,12.52
2022-12-26T19:51:23.049Z,11.88
2022-12-26T19:53:50.909Z,13.15
2022-12-26T19:56:22.231Z,11.90
2022-12-26T19:58:54.707Z,9.63
2022-12-26T20:01:27.361Z,11.55
2022-12-26T20:06:47.227Z,16.50
2022-12-26T20:09:15.932Z,15.85
2022-12-26T20:14:15.950Z,14.55
2022-12-26T20:17:05.084Z,18.88
2022-12-26T20:19:31.160Z,21.65
2022-12-26T20:21:58.882Z,20.70
2022-12-26T20:24:26.478Z,19.70
2022-12-26T20:26:53.920Z,19.13
2022-12-26T20:29:21.533Z,19.77
2022-12-26T20:31:49.835Z,18.63
2022-12-26T20:34:17.750Z,16.38
2022-12-26T20:36:45.221Z,13.23
2022-12-26T20:39:16.453Z,20.77
2022-12-26T20:41:44.378Z,19.15
2022-12-26T20:46:57.627Z,15.55
2022-12-26T20:49:25.050Z,18.42
2022-12-26T20:51:52.611Z,18.88
2022-12-26T20:54:20.085Z,22.20
2022-12-26T20:56:47.681Z,22.00
2022-12-26T20:59:15.203Z,19.75
2022-12-26T21:01:43.062Z,26.00
2022-12-26T21:04:17.963Z,32.67
2022-12-26T21:06:47.706Z,20.33
2022-12-26T21:09:15.721Z,23.15
2022-12-26T21:11:45.841Z,23.35
2022-12-26T21:14:18.508Z,24.25
2022-12-26T21:16:58.043Z,19.75
2022-12-26T21:19:27.782Z,14.13
2022-12-26T21:21:57.570Z,15.27
2022-12-26T21:24:29.014Z,14.07
2022-12-26T21:26:56.895Z,14.63
2022-12-26T21:29:27.894Z,14.15
2022-12-26T21:31:56.581Z,20.75
2022-12-26T21:34:27.822Z,16.30
2022-12-26T21:37:14.745Z,15.73
2022-12-26T21:39:43.356Z,17.92
2022-12-26T21:42:11.215Z,26.02
2022-12-26T21:44:38.951Z,25.35
2022-12-26T21:47:08.357Z,24.67
2022-12-26T21:49:36.905Z,24.48
2022-12-26T21:52:06.402Z,25.20
2022-12-26T21:54:52.733Z,18.33
2022-12-26T21:57:20.751Z,19.67
2022-12-26T21:59:57.051Z,20.80
2022-12-26T22:02:48.076Z,17.00
2022-12-26T22:05:17.176Z,19.27
2022-12-26T22:10:41.527Z,12.60
2022-12-26T22:13:09.375Z,14.95
2022-12-26T22:16:00.630Z,15.52
2022-12-26T22:18:29.216Z,14.50
2022-12-26T22:20:56.823Z,15.73
2022-12-26T22:23:24.683Z,17.98
2022-12-26T22:25:55.744Z,17.92
2022-12-26T22:28:23.794Z,18.13
2022-12-26T22:30:52.168Z,15.85
2022-12-26T22:33:20.242Z,18.33
2022-12-26T22:35:47.981Z,12.85
2022-12-26T22:38:15.869Z,15.52
2022-12-26T22:40:52.049Z,16.67
2022-12-26T22:43:20.713Z,12.88
2022-12-26T22:45:48.491Z,15.40
2022-12-26T22:48:16.194Z,18.95
2022-12-26T22:50:50.995Z,19.63
2022-12-26T22:53:18.861Z,22.25
2022-12-26T22:55:48.545Z,21.50
2022-12-26T22:58:17.680Z,22.00
2022-12-26T23:00:46.488Z,18.00
2022-12-26T23:03:14.926Z,16.65
2022-12-26T23:05:43.109Z,18.55
2022-12-26T23:08:19.930Z,17.33
2022-12-26T23:10:48.765Z,13.45
2022-12-26T23:13:17.279Z,12.65
2022-12-26T23:16:05.924Z,14.40
2022-12-26T23:19:16.184Z,14.57
2022-12-26T23:21:46.193Z,11.73
2022-12-26T23:24:13.572Z,14.70
2022-12-26T23:26:43.005Z,15.30
2022-12-26T23:29:34.431Z,16.08
2022-12-26T23:32:02.340Z,14.30
2022-12-26T23:34:29.876Z,15.82
2022-12-26T23:36:57.585Z,13.55
2022-12-26T23:39:25.107Z,17.30
2022-12-26T23:41:57.110Z,18.15
2022-12-26T23:44:24.601Z,15.15
2022-12-26T23:46:52.169Z,14.27
2022-12-26T23:49:19.705Z,16.25
2022-12-26T23:51:47.337Z,14.52
2022-12-26T23:54:14.794Z,12.82
2022-12-26T23:56:42.317Z,14.07
2022-12-26T23:59:09.689Z,15.23
